Crew | Aerofun Virtual



 METAR AND TAF INFORMATION
METAR FOR GCGM
ADDS - METARS form results

(0809 UTC 22 July 2019)
Data provider http://aviationweather.gov/metar/data/
 
METAR text: GCGM 220800Z 24005KT 210V280 9999 FEW030 21/18 Q1019 RMK R09/25004KT 200V280 ARP/25005KT
Conditions at: GCGM (LA GOMERA ARPT , ES) observed 0800 UTC 22 July 2019
Temperature: 21.0°C (70°F)
Dewpoint: 18.0°C (64°F) [RH = 83%]
Pressure (altimeter): 30.09 inches Hg (1019.0 mb)
Winds: from the WSW (240 degrees) at 6 MPH (5 knots; 2.6 m/s)
Visibility: 6 or more miles (10+ km)
Ceiling: at least 12,000 feet AGL
Clouds: few clouds at 3000 feet AGL
Weather: no significant weather observed at this time

METAR text: GCGM 220730Z 28003KT 9999 FEW030 20/17 Q1019 RMK R09/VRB01KT ARP/29002KT
Conditions at: GCGM (LA GOMERA ARPT , ES) observed 0730 UTC 22 July 2019
Temperature: 20.0°C (68°F)
Dewpoint: 17.0°C (63°F) [RH = 83%]
Pressure (altimeter): 30.09 inches Hg (1019.0 mb)
Winds: from the W (280 degrees) at 3 MPH (3 knots; 1.5 m/s)
Visibility: 6 or more miles (10+ km)
Ceiling: at least 12,000 feet AGL
Clouds: few clouds at 3000 feet AGL
Weather: no significant weather observed at this time

Forecast for: GCGM (LA GOMERA ARPT , ES)
Text: TAF GCGM 220200Z 2203/2303 VRB03KT 9999 FEW015 TX27/2214Z TN19/2205Z
Forecast period: 0300 UTC 22 July 2019 to 0300 UTC 23 July 2019
Forecast type: FROM: standard forecast or significant change
Winds: variable direction winds at 3 MPH (3 knots; 1.5 m/s)
Visibility: 6 or more miles 10+ km)
Ceiling: at least 12,000 feet AGL
Clouds: few clouds at 1500 feet AGL
Weather: no significant weather forecast for this period

 AIRPORT MAP

 RUNWAY INFORMATION
Runway 09 Runway length 4921 ft Runway width 98 ft
Runway elevation 716 ft Runway displaced threshold 0 ft Runway heading 81
Runway 27 Runway length 4921 ft Runway width 98 ft
Runway elevation 712 ft Runway displaced threshold 0 ft Runway heading 261

 AIRPORT FREQUENCIES
Type GND Name GND Frequency 121.7 MHZ
Type TWR Name TWR Frequency 118.4 MHZ

 AIRPORT NEAR NAVIGATION AIDS
Type VOR-DME Name La Gomera Frequency 116000 KHZ